McLeod, MT (59052)

9:50 PM MST on February 26, 2017 (GMT -0700)
S. Boulder-McKenzie Flats | | Change Station

Elev 4840 ft 45.75 °N, 109.96 °W | Updated 16 seconds ago

Overcast
Overcast
27.3 °F
Feels Like 21 °F
N
5.8
Wind Variable Wind from WNW
Gusts 5.8 mph

Today
High -- | Low -- °F
--% Chance of Precip.
Yesterday
High -- | Low -- °F
Precip. -- in
Pressure 29.67 in
Visibility 10.0 miles
Clouds Mostly Cloudy 5500 ft
Overcast 7000 ft
Windchill 21 °F
Dew Point 14 °F
Humidity 56%
Rainfall 0.00 in
Snow Depth Not available.
7:03 AM 6:03 PM
New Moon, 0% visible
METAR KLVM 270353Z AUTO 23019KT 10SM BKN055 OVC070 M03/M12 A2956 RMK AO2 PK WND 23031/0301 SLP047 T10281117
Pressure 29.67 in
Visibility 10.0 miles
Clouds Mostly Cloudy 5500 ft
Overcast 7000 ft
Windchill 21 °F
Dew Point 14 °F
Humidity 56%
Rainfall 0.00 in
Snow Depth Not available.
7:03 AM 6:03 PM
New Moon, 0% visible
METAR KLVM 270353Z AUTO 23019KT 10SM BKN055 OVC070 M03/M12 A2956 RMK AO2 PK WND 23031/0301 SLP047 T10281117

Get Your Daily Forecast Email!

Thanks for signing up!

Be on the lookout for a verification email in your inbox.

You'll start receiving the daily forecast at 8 AM.

×

10-Day Weather Forecast

Almanac

Astronomy

Feb. 26, 2017 Rise Set
Actual Time
Civil Twilight
Nautical Twilight
Astronomical Twilight
Moon
Length of Visible Light
Length of Day
Tomorrow will be .
, % of the Moon is Illuminated

Today's Extremes

State Highs State Lows

Community

WunderPhotos

Upload Photos

1,962,540 photos uploaded!

WunderBlog® & News

Nearby

Air Quality

  Air Quality AQ Index Pollutant
Not available.

Snow Depth

Station Depth Elevation

Earthquake Activity

City Distance Mag. Time & Date
Minimum magnitude displayed is 2.5.

Coastal Water Temperatures

Place Temperature

Stations

Nearby Weather Stations

Station Location Temp. Windchill Dew Point Humidity Wind Precip. Elev Updated Type
                   

Watches & Warnings

There are currently no watches in effect.